createdAt,value
2022-12-28T00:00:31.298Z,23.75
2022-12-28T00:05:32.720Z,23.63
2022-12-28T00:11:08.176Z,23.59
2022-12-28T00:15:55.545Z,23.71
2022-12-28T00:20:57.954Z,23.73
2022-12-28T00:26:09.697Z,23.74
2022-12-28T00:31:11.167Z,23.85
2022-12-28T00:36:13.397Z,23.73
2022-12-28T00:41:14.808Z,23.84
2022-12-28T00:46:17.678Z,23.72
2022-12-28T00:51:19.623Z,23.79
2022-12-28T00:56:21.774Z,23.71
2022-12-28T01:01:23.592Z,23.58
2022-12-28T01:06:25.506Z,23.67
2022-12-28T01:11:28.314Z,23.55
2022-12-28T01:16:34.439Z,23.86
2022-12-28T01:21:36.101Z,23.84
2022-12-28T01:26:37.513Z,23.63
2022-12-28T01:31:39.108Z,23.52
2022-12-28T01:36:40.547Z,23.58
2022-12-28T01:41:42.256Z,23.52
2022-12-28T01:46:53.945Z,23.46
2022-12-28T01:52:24.183Z,23.39
2022-12-28T01:57:27.513Z,23.55
2022-12-28T02:02:29.406Z,23.32
2022-12-28T02:07:40.607Z,23.44
2022-12-28T02:12:42.078Z,23.38
2022-12-28T02:17:43.549Z,23.35
2022-12-28T02:23:16.615Z,23.26
2022-12-28T02:28:42.600Z,23.39
2022-12-28T02:33:48.296Z,23.58
2022-12-28T02:38:49.518Z,23.43
2022-12-28T02:43:51.581Z,23.31
2022-12-28T02:49:11.629Z,23.30
2022-12-28T02:54:44.247Z,23.34
2022-12-28T03:00:01.168Z,23.38
2022-12-28T03:05:44.131Z,23.34
2022-12-28T03:11:11.801Z,23.31
2022-12-28T03:16:27.622Z,23.49
2022-12-28T03:21:47.467Z,23.47
2022-12-28T03:27:08.477Z,23.34
2022-12-28T03:32:09.867Z,23.41
2022-12-28T03:37:33.479Z,23.46
2022-12-28T03:43:03.994Z,23.43
2022-12-28T03:48:05.927Z,23.42
2022-12-28T03:53:08.323Z,23.14
2022-12-28T03:58:09.698Z,23.20
2022-12-28T04:03:11.124Z,23.49
2022-12-28T04:08:12.561Z,23.18
2022-12-28T04:13:13.929Z,23.20
2022-12-28T04:18:17.042Z,23.25
2022-12-28T04:23:18.428Z,23.10
2022-12-28T04:28:19.810Z,23.07
2022-12-28T04:33:22.499Z,23.03
2022-12-28T04:38:23.893Z,22.82
2022-12-28T04:43:25.333Z,23.14
2022-12-28T04:48:26.805Z,23.18
2022-12-28T04:53:28.177Z,23.08
2022-12-28T04:58:29.562Z,23.05
2022-12-28T05:03:30.939Z,23.34
2022-12-28T05:08:34.663Z,23.25
2022-12-28T05:13:36.049Z,23.29
2022-12-28T05:18:37.493Z,23.28
2022-12-28T05:23:38.877Z,23.23
2022-12-28T05:28:40.308Z,23.33
2022-12-28T05:33:41.982Z,23.25
2022-12-28T05:38:43.446Z,23.58
2022-12-28T05:43:44.899Z,23.33
2022-12-28T05:48:46.418Z,23.57
2022-12-28T05:53:47.803Z,23.39
2022-12-28T05:59:02.236Z,23.40
2022-12-28T06:04:17.294Z,23.36
2022-12-28T06:09:18.696Z,23.48
2022-12-28T06:14:20.354Z,23.30
2022-12-28T06:19:21.820Z,23.61
2022-12-28T06:24:23.203Z,23.60
2022-12-28T06:29:24.589Z,23.49
2022-12-28T06:34:27.062Z,23.32
2022-12-28T06:39:29.085Z,23.19
2022-12-28T06:44:30.482Z,23.13
2022-12-28T06:49:31.859Z,23.24
2022-12-28T06:54:33.243Z,23.07
2022-12-28T06:59:34.609Z,22.87
2022-12-28T07:04:36.090Z,22.85
2022-12-28T07:09:37.504Z,22.92
2022-12-28T07:14:39.421Z,22.91
2022-12-28T07:19:40.819Z,22.96
2022-12-28T07:24:42.186Z,23.22
2022-12-28T07:29:43.591Z,22.88
2022-12-28T07:34:44.990Z,23.14
2022-12-28T07:39:46.406Z,23.18
2022-12-28T07:44:49.307Z,23.31
2022-12-28T07:49:50.862Z,23.25
2022-12-28T07:54:52.273Z,23.40
2022-12-28T07:59:53.669Z,23.36
2022-12-28T08:04:55.055Z,23.44
2022-12-28T08:09:56.454Z,23.55
2022-12-28T08:15:00.983Z,23.59
2022-12-28T08:20:02.401Z,23.61
2022-12-28T08:25:03.811Z,23.79
2022-12-28T08:30:05.832Z,24.12
2022-12-28T08:35:08.083Z,23.99
2022-12-28T08:40:10.121Z,24.11
2022-12-28T08:45:12.042Z,24.21
2022-12-28T08:50:15.002Z,24.41
2022-12-28T08:55:19.490Z,24.45
2022-12-28T09:00:20.928Z,24.57
2022-12-28T09:05:22.300Z,24.66
2022-12-28T09:10:23.688Z,24.50
2022-12-28T09:15:25.135Z,24.60
2022-12-28T09:20:26.551Z,24.67
2022-12-28T09:25:27.923Z,24.81
2022-12-28T09:30:29.296Z,24.93
2022-12-28T09:35:30.662Z,25.06
2022-12-28T09:40:34.332Z,25.15
2022-12-28T09:45:35.705Z,25.27
2022-12-28T09:50:37.586Z,25.28
2022-12-28T09:55:40.148Z,25.42
2022-12-28T10:00:43.510Z,25.54
2022-12-28T10:05:44.889Z,25.43
2022-12-28T10:10:48.866Z,25.79
2022-12-28T10:15:50.751Z,25.62
2022-12-28T10:20:52.162Z,25.66
2022-12-28T10:25:53.952Z,25.75
2022-12-28T10:31:09.165Z,25.81
2022-12-28T10:36:12.095Z,25.91
2022-12-28T10:41:14.791Z,25.82
2022-12-28T10:46:23.160Z,25.90
2022-12-28T10:51:26.506Z,26.04
2022-12-28T10:56:32.203Z,26.10
2022-12-28T11:01:33.579Z,26.19
2022-12-28T11:06:56.095Z,26.01
2022-12-28T11:12:18.648Z,26.04
2022-12-28T11:17:24.333Z,26.11
2022-12-28T11:22:27.895Z,26.43
2022-12-28T11:27:29.267Z,26.35
2022-12-28T11:32:33.336Z,26.37
2022-12-28T11:37:34.707Z,26.24
2022-12-28T11:42:40.439Z,26.43
2022-12-28T11:47:42.331Z,26.35
2022-12-28T11:52:47.608Z,26.65
2022-12-28T11:57:49.081Z,26.46
2022-12-28T12:02:51.042Z,26.63
2022-12-28T12:07:52.423Z,26.44
2022-12-28T12:12:53.874Z,26.45
2022-12-28T12:18:02.774Z,26.29
2022-12-28T12:23:07.417Z,26.47
2022-12-28T12:28:29.920Z,26.46
2022-12-28T12:33:34.376Z,26.46
2022-12-28T12:39:03.217Z,26.34
2022-12-28T12:44:22.792Z,26.36
2022-12-28T12:49:37.859Z,26.24
2022-12-28T12:55:15.808Z,26.19
2022-12-28T13:00:21.870Z,26.20
2022-12-28T13:05:24.938Z,26.26
2022-12-28T13:10:27.036Z,26.26
2022-12-28T13:15:28.521Z,26.19
2022-12-28T13:20:30.069Z,26.25
2022-12-28T13:25:32.741Z,26.41
2022-12-28T13:30:34.162Z,26.47
2022-12-28T13:35:35.565Z,26.43
2022-12-28T13:40:37.742Z,26.25
2022-12-28T13:45:39.117Z,26.37
2022-12-28T13:50:41.539Z,26.19
2022-12-28T13:55:44.249Z,26.52
2022-12-28T14:00:46.886Z,26.59
2022-12-28T14:05:49.819Z,26.39
2022-12-28T14:10:51.263Z,26.64
2022-12-28T14:15:52.760Z,26.80
2022-12-28T14:20:55.062Z,26.63
2022-12-28T14:25:58.458Z,26.70
2022-12-28T14:30:59.919Z,26.63
2022-12-28T14:36:02.532Z,26.70
2022-12-28T14:41:04.057Z,26.61
2022-12-28T14:46:27.888Z,26.56
2022-12-28T14:51:33.815Z,26.61
2022-12-28T14:56:35.259Z,26.68
2022-12-28T15:01:44.773Z,26.81
2022-12-28T15:06:46.732Z,26.83
2022-12-28T15:11:48.156Z,26.76
2022-12-28T15:16:49.566Z,26.89
2022-12-28T15:21:50.998Z,26.80
2022-12-28T15:26:52.418Z,26.67
2022-12-28T15:31:53.874Z,26.95
2022-12-28T15:36:55.286Z,26.88
2022-12-28T15:41:56.699Z,26.81
2022-12-28T15:46:58.131Z,26.84
2022-12-28T15:51:59.677Z,26.77
2022-12-28T15:57:01.078Z,26.79
2022-12-28T16:02:02.716Z,26.91
2022-12-28T16:07:04.309Z,26.81
2022-12-28T16:12:05.853Z,26.75
2022-12-28T16:17:07.228Z,26.78
2022-12-28T16:22:08.621Z,26.88
2022-12-28T16:27:10.026Z,27.03
2022-12-28T16:32:11.907Z,27.20
2022-12-28T16:37:14.756Z,27.07
2022-12-28T16:42:16.144Z,26.96
2022-12-28T16:47:19.435Z,27.17
2022-12-28T16:52:20.812Z,27.29
2022-12-28T16:57:22.200Z,27.17
2022-12-28T17:02:23.818Z,27.35
2022-12-28T17:07:25.315Z,27.05
2022-12-28T17:12:26.731Z,27.08
2022-12-28T17:17:28.124Z,27.19
2022-12-28T17:22:30.829Z,27.30
2022-12-28T17:27:32.327Z,27.16
2022-12-28T17:32:33.711Z,27.13
2022-12-28T17:37:35.832Z,27.19
2022-12-28T17:42:37.241Z,27.09
2022-12-28T17:47:38.805Z,27.28
2022-12-28T17:52:41.678Z,27.25
2022-12-28T17:57:43.108Z,27.34
2022-12-28T18:02:46.487Z,27.28
2022-12-28T18:07:48.038Z,27.25
2022-12-28T18:12:49.947Z,27.33
2022-12-28T18:17:51.336Z,27.32
2022-12-28T18:22:52.712Z,27.66
2022-12-28T18:27:54.392Z,27.40
2022-12-28T18:32:56.620Z,27.46
2022-12-28T18:37:58.024Z,27.38
2022-12-28T18:42:59.402Z,27.56
2022-12-28T18:48:00.839Z,27.52
2022-12-28T18:53:02.216Z,27.62
2022-12-28T18:58:03.594Z,27.49
2022-12-28T19:03:05.084Z,27.64
2022-12-28T19:08:06.562Z,27.47
2022-12-28T19:13:07.943Z,27.64
2022-12-28T19:18:09.361Z,27.75
2022-12-28T19:23:11.537Z,27.68
2022-12-28T19:28:12.969Z,27.72
2022-12-28T19:33:14.344Z,27.81
2022-12-28T19:38:15.715Z,27.90
2022-12-28T19:43:17.100Z,27.94
2022-12-28T19:48:19.222Z,27.95
2022-12-28T19:53:20.590Z,28.00
2022-12-28T19:58:23.850Z,27.99
2022-12-28T20:03:25.247Z,27.94
2022-12-28T20:08:26.651Z,28.13
2022-12-28T20:13:28.026Z,28.11
2022-12-28T20:18:29.456Z,28.23
2022-12-28T20:23:30.889Z,28.12
2022-12-28T20:28:32.715Z,28.14
2022-12-28T20:33:35.191Z,27.97
2022-12-28T20:38:36.591Z,28.20
2022-12-28T20:43:37.977Z,28.09
2022-12-28T20:48:39.469Z,28.07
2022-12-28T20:53:40.847Z,28.06
2022-12-28T20:58:42.234Z,28.08
2022-12-28T21:03:44.175Z,28.23
2022-12-28T21:08:45.640Z,28.20
2022-12-28T21:13:47.049Z,28.15
2022-12-28T21:18:50.255Z,28.45
2022-12-28T21:23:54.783Z,28.07
2022-12-28T21:28:56.217Z,28.14
2022-12-28T21:33:57.589Z,28.23
2022-12-28T21:38:59.282Z,28.26
2022-12-28T21:44:00.662Z,28.20
2022-12-28T21:49:03.392Z,28.14
2022-12-28T21:54:12.636Z,28.17
2022-12-28T21:59:14.034Z,28.20
2022-12-28T22:04:35.686Z,28.21
2022-12-28T22:09:55.537Z,28.25
2022-12-28T22:15:15.719Z,28.22
2022-12-28T22:20:17.142Z,28.04
2022-12-28T22:25:18.521Z,28.00
2022-12-28T22:30:19.983Z,28.18
2022-12-28T22:35:21.586Z,28.02
2022-12-28T22:40:22.993Z,27.85
2022-12-28T22:45:24.727Z,27.53
2022-12-28T22:50:26.840Z,27.56
2022-12-28T22:55:28.283Z,27.64
2022-12-28T23:00:29.699Z,27.51
2022-12-28T23:05:31.113Z,27.31
2022-12-28T23:10:32.530Z,27.25
2022-12-28T23:15:33.913Z,27.26
2022-12-28T23:20:53.847Z,27.22
2022-12-28T23:26:13.875Z,27.18
2022-12-28T23:31:15.331Z,27.27
2022-12-28T23:36:16.794Z,27.50
2022-12-28T23:41:36.661Z,27.11
2022-12-28T23:46:38.064Z,27.08
2022-12-28T23:51:40.799Z,27.21
2022-12-28T23:56:42.267Z,27.30
